Terminal Aerodrome Forecast
Issued by NWS

Home | Current Version | Previous Version | Text Only | Print | Product List | Glossary Off
Versions: 1 2 3 4 5 6 7 8 9 10 11 12 13 14 15 16 17

000
FTUS43 KEAX 080520
TAFSTJ
TAF
KSTJ 080520Z 0806/0906 31009KT P6SM SKC
     FM081200 31013KT P6SM SKC
     FM082300 31008KT P6SM SKC=

USA.gov is the U.S. government's official web portal to all federal, state and local government web resources and services.